Time;durP1;ratioP1;P1;durP2;ratioP2;P2;SDS_P1;SDS_P2;PMS_P1;PMS_P2;Temp;Humidity;BMP_temperature;BMP_pressure;BME280_temperature;BME280_humidity;BME280_pressure;Samples;Min_cycle;Max_cycle;Signal;HPM_P1;HPM_P2
2023/07/04 00:00:07;;;;;;;12.38;4.82;;;;;;;;;;5083904;28;20103;-65
2023/07/04 00:02:32;;;;;;;12.02;4.60;;;;;;;;;;5091832;28;20024;-65
2023/07/04 00:04:59;;;;;;;12.67;4.50;;;;;;;;;;5083505;28;20475;-65
2023/07/04 00:07:24;;;;;;;17.45;4.40;;;;;;;;;;5089735;28;20266;-66
2023/07/04 00:09:49;;;;;;;11.23;4.47;;;;;;;;;;5091321;28;20142;-66
2023/07/04 00:12:15;;;;;;;13.02;5.13;;;;;;;;;;5091426;28;20115;-65
2023/07/04 00:14:41;;;;;;;11.85;4.53;;;;;;;;;;5092073;28;20036;-65
2023/07/04 00:17:06;;;;;;;15.10;5.13;;;;;;;;;;5091344;28;20065;-67
2023/07/04 00:19:32;;;;;;;13.55;4.32;;;;;;;;;;5091572;28;20466;-66
2023/07/04 00:21:57;;;;;;;10.48;5.38;;;;;;;;;;5091491;28;20020;-66
2023/07/04 00:24:23;;;;;;;11.73;4.70;;;;;;;;;;5091778;28;20024;-66
2023/07/04 00:26:48;;;;;;;14.10;4.88;;;;;;;;;;5084110;28;20471;-65
2023/07/04 00:29:13;;;;;;;14.57;4.10;;;;;;;;;;5087234;28;20111;-65
2023/07/04 00:31:38;;;;;;;12.05;4.93;;;;;;;;;;5084563;28;20322;-65
2023/07/04 00:34:05;;;;;;;11.68;4.43;;;;;;;;;;5086193;28;20429;-65
2023/07/04 00:36:31;;;;;;;11.35;4.32;;;;;;;;;;5085006;28;20016;-64
2023/07/04 00:38:56;;;;;;;12.93;4.97;;;;;;;;;;5085361;28;20089;-65
2023/07/04 00:41:22;;;;;;;9.48;4.00;;;;;;;;;;5079958;28;20032;-65
2023/07/04 00:43:56;;;;;;;10.82;4.68;;;;;;;;;;5090898;28;20042;-65
2023/07/04 00:46:28;;;;;;;12.67;4.57;;;;;;;;;;5091825;28;20115;-65
2023/07/04 00:48:54;;;;;;;11.20;4.15;;;;;;;;;;5090340;28;20285;-66
2023/07/04 00:51:22;;;;;;;10.75;4.32;;;;;;;;;;5091241;28;20379;-66
2023/07/04 00:53:49;;;;;;;16.67;4.40;;;;;;;;;;5091877;28;20032;-65
2023/07/04 00:56:15;;;;;;;9.38;4.47;;;;;;;;;;5091847;28;20035;-65
2023/07/04 00:58:42;;;;;;;15.27;4.90;;;;;;;;;;5091197;28;20032;-65
2023/07/04 01:01:08;;;;;;;19.48;5.47;;;;;;;;;;5090958;28;20066;-65
2023/07/04 01:03:33;;;;;;;14.48;4.93;;;;;;;;;;5090758;28;20051;-65
2023/07/04 01:06:08;;;;;;;13.80;4.85;;;;;;;;;;5090893;28;20020;-65
2023/07/04 01:08:36;;;;;;;15.50;5.00;;;;;;;;;;5089377;28;20031;-65
2023/07/04 01:11:03;;;;;;;13.82;5.20;;;;;;;;;;5090807;28;20482;-65
2023/07/04 01:13:33;;;;;;;16.50;4.88;;;;;;;;;;5090011;28;20035;-64
2023/07/04 01:15:59;;;;;;;15.90;5.10;;;;;;;;;;5089949;28;20051;-66
2023/07/04 01:18:24;;;;;;;12.48;5.55;;;;;;;;;;5090582;28;20113;-66
2023/07/04 01:20:50;;;;;;;14.70;4.47;;;;;;;;;;5090221;28;20500;-65
2023/07/04 01:23:38;;;;;;;14.05;5.85;;;;;;;;;;5090143;28;20016;-66
2023/07/04 01:26:22;;;;;;;10.90;4.45;;;;;;;;;;5084077;28;20063;-66
2023/07/04 01:28:51;;;;;;;19.95;4.63;;;;;;;;;;5079857;28;20103;-65
2023/07/04 01:31:16;;;;;;;14.25;5.07;;;;;;;;;;5076530;28;20037;-65
2023/07/04 01:33:42;;;;;;;13.25;5.38;;;;;;;;;;5090462;28;20028;-65
2023/07/04 01:36:11;;;;;;;12.77;5.30;;;;;;;;;;5077865;28;20071;-66
2023/07/04 01:38:36;;;;;;;16.00;5.78;;;;;;;;;;5090509;28;20023;-67
2023/07/04 01:41:02;;;;;;;13.10;5.22;;;;;;;;;;5090808;28;20020;-66
2023/07/04 01:43:27;;;;;;;18.42;6.75;;;;;;;;;;5085342;28;20020;-66
2023/07/04 01:45:52;;;;;;;17.60;4.80;;;;;;;;;;5081047;28;20094;-66
2023/07/04 01:48:18;;;;;;;12.68;5.28;;;;;;;;;;5049052;28;20142;-66
2023/07/04 01:50:43;;;;;;;16.42;5.55;;;;;;;;;;5047293;28;20024;-67
2023/07/04 01:53:08;;;;;;;18.25;5.25;;;;;;;;;;5049101;28;20028;-66
2023/07/04 01:55:33;;;;;;;11.50;4.68;;;;;;;;;;5053034;28;20107;-66
2023/07/04 01:58:00;;;;;;;11.75;5.38;;;;;;;;;;5089750;28;20028;-65
2023/07/04 02:00:26;;;;;;;13.15;5.30;;;;;;;;;;5080240;28;20037;-65
2023/07/04 02:02:51;;;;;;;18.42;6.05;;;;;;;;;;5085515;28;20191;-65
2023/07/04 02:05:19;;;;;;;10.93;5.00;;;;;;;;;;5089787;28;20428;-65
2023/07/04 02:07:44;;;;;;;17.92;6.40;;;;;;;;;;5090449;28;20319;-65
2023/07/04 02:10:10;;;;;;;19.08;5.13;;;;;;;;;;5090443;28;20028;-65
2023/07/04 02:12:35;;;;;;;24.65;6.50;;;;;;;;;;5090296;28;20398;-65
2023/07/04 02:15:00;;;;;;;18.85;5.72;;;;;;;;;;5090226;28;20028;-65
2023/07/04 02:17:25;;;;;;;13.23;5.53;;;;;;;;;;5089650;28;20424;-65
2023/07/04 02:19:52;;;;;;;14.90;5.30;;;;;;;;;;5090187;28;20030;-64
2023/07/04 02:22:17;;;;;;;14.90;5.70;;;;;;;;;;5094007;28;20285;-65
2023/07/04 02:24:42;;;;;;;17.80;5.97;;;;;;;;;;5094212;28;20390;-65
2023/07/04 02:27:07;;;;;;;17.13;5.93;;;;;;;;;;5093464;28;20032;-65
2023/07/04 02:29:32;;;;;;;30.17;6.50;;;;;;;;;;5094208;28;20311;-65
2023/07/04 02:31:58;;;;;;;15.27;5.83;;;;;;;;;;5094460;28;20049;-64
2023/07/04 02:34:23;;;;;;;16.20;6.33;;;;;;;;;;5085987;28;20778;-65
2023/07/04 02:36:48;;;;;;;15.13;4.93;;;;;;;;;;5085981;28;20298;-65
2023/07/04 02:39:14;;;;;;;11.82;5.40;;;;;;;;;;5093263;28;20070;-64
2023/07/04 02:41:39;;;;;;;11.45;5.03;;;;;;;;;;5093374;28;20034;-65
2023/07/04 02:44:04;;;;;;;16.40;5.73;;;;;;;;;;5092256;28;20425;-64
2023/07/04 02:46:30;;;;;;;13.95;5.50;;;;;;;;;;5092591;28;20339;-65
2023/07/04 02:48:55;;;;;;;22.07;6.97;;;;;;;;;;5074951;28;20560;-65
2023/07/04 02:51:20;;;;;;;16.67;5.13;;;;;;;;;;5093339;28;20546;-65
2023/07/04 02:53:45;;;;;;;12.13;5.22;;;;;;;;;;5093259;28;20028;-65
2023/07/04 02:56:11;;;;;;;12.50;5.10;;;;;;;;;;5093374;28;20020;-64
2023/07/04 02:58:36;;;;;;;13.65;6.07;;;;;;;;;;5092572;28;20036;-65
2023/07/04 03:01:03;;;;;;;16.88;5.63;;;;;;;;;;5092484;28;20024;-65
2023/07/04 03:03:28;;;;;;;13.60;5.18;;;;;;;;;;5093013;28;20024;-65
2023/07/04 03:05:53;;;;;;;13.33;5.47;;;;;;;;;;5092443;28;20042;-65
2023/07/04 03:08:18;;;;;;;13.93;5.40;;;;;;;;;;5084323;28;20273;-65
2023/07/04 03:10:45;;;;;;;23.23;6.30;;;;;;;;;;5092280;28;20020;-65
2023/07/04 03:13:10;;;;;;;16.38;6.13;;;;;;;;;;5092247;28;20557;-65
2023/07/04 03:15:35;;;;;;;22.30;5.73;;;;;;;;;;5092538;28;20110;-65
2023/07/04 03:18:01;;;;;;;12.03;5.60;;;;;;;;;;5081831;28;20310;-65
2023/07/04 03:20:27;;;;;;;27.92;6.88;;;;;;;;;;5092941;28;20258;-65
2023/07/04 03:22:52;;;;;;;13.52;5.88;;;;;;;;;;5074797;28;20114;-64
2023/07/04 03:25:17;;;;;;;17.77;6.47;;;;;;;;;;5092528;28;20028;-64
2023/07/04 03:27:42;;;;;;;11.65;5.65;;;;;;;;;;5093076;28;20323;-65
2023/07/04 03:30:09;;;;;;;14.10;5.80;;;;;;;;;;5091448;28;20040;-64
2023/07/04 03:32:34;;;;;;;22.55;7.10;;;;;;;;;;5092181;28;20398;-64
2023/07/04 03:35:01;;;;;;;14.27;6.05;;;;;;;;;;5091642;28;20032;-64
2023/07/04 03:37:29;;;;;;;16.65;5.93;;;;;;;;;;5086277;28;20032;-65
2023/07/04 03:39:55;;;;;;;25.35;6.50;;;;;;;;;;5086387;28;20063;-65
2023/07/04 03:42:21;;;;;;;19.08;6.32;;;;;;;;;;5091890;28;20050;-65
2023/07/04 03:44:46;;;;;;;20.07;6.03;;;;;;;;;;5092367;28;20028;-65
2023/07/04 03:47:11;;;;;;;13.07;5.33;;;;;;;;;;5092065;28;20377;-64
2023/07/04 03:49:36;;;;;;;25.65;6.65;;;;;;;;;;5091624;28;20266;-64
2023/07/04 03:52:02;;;;;;;18.47;6.13;;;;;;;;;;5091205;28;20055;-64
2023/07/04 03:54:27;;;;;;;16.38;6.38;;;;;;;;;;5091093;28;20278;-65
2023/07/04 03:56:55;;;;;;;12.50;5.53;;;;;;;;;;5091358;28;20016;-65
2023/07/04 03:59:20;;;;;;;17.75;5.97;;;;;;;;;;5092107;28;20063;-64
2023/07/04 04:01:46;;;;;;;15.20;6.43;;;;;;;;;;5091494;28;20048;-65
2023/07/04 04:04:11;;;;;;;18.23;5.85;;;;;;;;;;5092291;28;20449;-64
2023/07/04 04:06:36;;;;;;;26.23;7.43;;;;;;;;;;5091546;28;20042;-64
2023/07/04 04:09:02;;;;;;;15.13;6.45;;;;;;;;;;5092316;28;20364;-66
2023/07/04 04:11:27;;;;;;;23.30;6.55;;;;;;;;;;5091408;28;20028;-66
2023/07/04 04:13:53;;;;;;;18.48;6.32;;;;;;;;;;5091436;28;20416;-65
2023/07/04 04:16:18;;;;;;;16.77;6.47;;;;;;;;;;5090121;28;20111;-65
2023/07/04 04:18:43;;;;;;;15.98;6.95;;;;;;;;;;5091981;28;20091;-65
2023/07/04 04:21:09;;;;;;;20.30;6.65;;;;;;;;;;5091420;28;20107;-65
2023/07/04 04:23:34;;;;;;;18.95;5.28;;;;;;;;;;5091532;28;20024;-66
2023/07/04 04:26:00;;;;;;;17.80;5.78;;;;;;;;;;5091001;28;20513;-66
2023/07/04 04:28:26;;;;;;;18.67;6.47;;;;;;;;;;5090953;28;20024;-66
2023/07/04 04:30:51;;;;;;;15.40;5.78;;;;;;;;;;5090758;28;20020;-65
2023/07/04 04:33:16;;;;;;;13.88;5.03;;;;;;;;;;5091170;28;20039;-65
2023/07/04 04:35:43;;;;;;;14.98;6.20;;;;;;;;;;5086721;28;20024;-65
2023/07/04 04:38:10;;;;;;;16.65;6.25;;;;;;;;;;5091233;28;20130;-65
2023/07/04 04:40:35;;;;;;;17.38;5.95;;;;;;;;;;5091398;28;20035;-65
2023/07/04 04:43:02;;;;;;;16.40;7.18;;;;;;;;;;5091541;28;20405;-65
2023/07/04 04:45:28;;;;;;;27.23;6.53;;;;;;;;;;5091504;28;20023;-64
2023/07/04 04:47:54;;;;;;;15.38;6.40;;;;;;;;;;5090943;28;20049;-64
2023/07/04 04:50:22;;;;;;;17.33;6.60;;;;;;;;;;5081547;28;20115;-66
2023/07/04 04:52:47;;;;;;;21.23;7.13;;;;;;;;;;5075612;28;20371;-64
2023/07/04 04:55:13;;;;;;;16.85;6.72;;;;;;;;;;5091069;28;20024;-65
2023/07/04 04:57:38;;;;;;;17.95;6.47;;;;;;;;;;5075057;28;20058;-65
2023/07/04 05:00:05;;;;;;;28.97;7.23;;;;;;;;;;5090928;28;20098;-66
2023/07/04 05:02:30;;;;;;;16.40;6.32;;;;;;;;;;5090923;28;20285;-64
2023/07/04 05:04:55;;;;;;;26.17;6.20;;;;;;;;;;5090768;28;20031;-64
2023/07/04 05:07:23;;;;;;;18.17;6.10;;;;;;;;;;5090756;28;20016;-64
2023/07/04 05:09:50;;;;;;;25.38;6.35;;;;;;;;;;5090847;28;20023;-65
2023/07/04 05:12:15;;;;;;;23.35;6.55;;;;;;;;;;5090853;28;20099;-65
2023/07/04 05:14:40;;;;;;;15.53;5.73;;;;;;;;;;5089723;28;20111;-65
2023/07/04 05:17:05;;;;;;;21.87;8.07;;;;;;;;;;5091062;28;20258;-65
2023/07/04 05:19:31;;;;;;;20.93;6.60;;;;;;;;;;5081215;28;20270;-65
2023/07/04 05:21:56;;;;;;;21.20;7.65;;;;;;;;;;5076476;28;20273;-64
2023/07/04 05:24:21;;;;;;;19.85;6.63;;;;;;;;;;5083325;28;20379;-65
2023/07/04 05:26:47;;;;;;;18.88;7.15;;;;;;;;;;5090734;28;20024;-65
2023/07/04 05:29:12;;;;;;;18.67;7.20;;;;;;;;;;5091061;28;20032;-64
2023/07/04 05:31:37;;;;;;;16.57;6.57;;;;;;;;;;5090843;28;20274;-65
2023/07/04 05:34:02;;;;;;;14.90;7.32;;;;;;;;;;5089864;28;20282;-64
2023/07/04 05:36:29;;;;;;;28.52;7.05;;;;;;;;;;5087424;28;20071;-64
2023/07/04 05:38:55;;;;;;;27.10;6.55;;;;;;;;;;5089082;28;20470;-65
2023/07/04 05:41:21;;;;;;;18.42;6.35;;;;;;;;;;5090476;28;20098;-64
2023/07/04 05:43:47;;;;;;;18.95;7.30;;;;;;;;;;5090719;28;20032;-66
2023/07/04 05:46:12;;;;;;;22.02;7.18;;;;;;;;;;5090593;28;20382;-65
2023/07/04 05:48:38;;;;;;;24.48;6.25;;;;;;;;;;5090323;28;20028;-65
2023/07/04 05:51:08;;;;;;;21.05;7.30;;;;;;;;;;5090594;28;20056;-66
2023/07/04 05:53:34;;;;;;;25.42;7.43;;;;;;;;;;5090326;28;20032;-64
2023/07/04 05:56:13;;;;;;;18.25;6.50;;;;;;;;;;5092207;28;20028;-64
2023/07/04 05:58:40;;;;;;;18.83;5.93;;;;;;;;;;5094497;28;20476;-64
2023/07/04 06:01:13;;;;;;;20.08;7.20;;;;;;;;;;5093107;28;20046;-64
2023/07/04 06:03:39;;;;;;;16.75;6.80;;;;;;;;;;5094111;28;20024;-64
2023/07/04 06:06:05;;;;;;;11.98;6.05;;;;;;;;;;5093682;28;20533;-65
2023/07/04 06:08:31;;;;;;;14.77;6.10;;;;;;;;;;5094567;28;20530;-65
2023/07/04 06:10:58;;;;;;;13.98;6.05;;;;;;;;;;5093466;28;20091;-65
2023/07/04 06:13:23;;;;;;;16.65;6.70;;;;;;;;;;5072828;28;20200;-65
2023/07/04 06:15:48;;;;;;;17.25;6.53;;;;;;;;;;5041465;28;20020;-65
2023/07/04 06:18:13;;;;;;;24.33;6.53;;;;;;;;;;5048036;28;20020;-64
2023/07/04 06:20:38;;;;;;;19.90;7.07;;;;;;;;;;5038285;28;21057;-65
2023/07/04 06:23:04;;;;;;;14.73;6.67;;;;;;;;;;5066181;28;20103;-64
2023/07/04 06:25:29;;;;;;;11.32;5.95;;;;;;;;;;5093693;28;20274;-65
2023/07/04 06:27:54;;;;;;;17.67;6.78;;;;;;;;;;5093024;28;20032;-63
2023/07/04 06:30:20;;;;;;;19.77;6.47;;;;;;;;;;5074613;28;20047;-65
2023/07/04 06:32:45;;;;;;;20.35;7.38;;;;;;;;;;5093332;28;20278;-65
2023/07/04 06:35:10;;;;;;;23.57;6.53;;;;;;;;;;5081665;28;20024;-65
2023/07/04 06:37:36;;;;;;;14.63;6.22;;;;;;;;;;5093262;28;20266;-64
2023/07/04 06:40:02;;;;;;;12.43;6.03;;;;;;;;;;5093234;28;20032;-65
2023/07/04 06:42:28;;;;;;;16.52;5.82;;;;;;;;;;5093689;28;20024;-65
2023/07/04 06:44:54;;;;;;;15.27;6.70;;;;;;;;;;5074600;28;20020;-65
2023/07/04 06:47:19;;;;;;;14.53;6.17;;;;;;;;;;5093709;28;20104;-65
2023/07/04 06:49:44;;;;;;;14.93;6.10;;;;;;;;;;5092438;28;20265;-65
2023/07/04 06:52:09;;;;;;;16.15;6.57;;;;;;;;;;5093258;28;20297;-64
2023/07/04 06:54:35;;;;;;;12.63;6.03;;;;;;;;;;5092863;28;20032;-63
2023/07/04 06:57:02;;;;;;;21.63;6.70;;;;;;;;;;5093322;28;20266;-64
2023/07/04 06:59:27;;;;;;;18.70;6.35;;;;;;;;;;5092669;28;20366;-64
2023/07/04 07:01:53;;;;;;;17.90;5.93;;;;;;;;;;5093381;28;20086;-65
2023/07/04 07:04:18;;;;;;;14.60;5.83;;;;;;;;;;5091502;28;20262;-64
2023/07/04 07:06:43;;;;;;;20.60;5.70;;;;;;;;;;5091633;28;20267;-64
2023/07/04 07:09:08;;;;;;;13.30;4.95;;;;;;;;;;5092964;28;20359;-65
2023/07/04 07:11:34;;;;;;;19.65;6.80;;;;;;;;;;5090958;28;20024;-66
2023/07/04 07:13:59;;;;;;;16.42;5.95;;;;;;;;;;5077629;28;20031;-65
2023/07/04 07:16:25;;;;;;;14.77;5.90;;;;;;;;;;5093089;28;20031;-65
2023/07/04 07:18:51;;;;;;;17.27;6.20;;;;;;;;;;5092307;28;20399;-65
2023/07/04 07:21:20;;;;;;;15.15;5.57;;;;;;;;;;5091374;28;20105;-65
2023/07/04 07:23:46;;;;;;;14.65;6.15;;;;;;;;;;5092649;28;20050;-65
2023/07/04 07:26:14;;;;;;;14.35;5.80;;;;;;;;;;5092856;28;20032;-65
2023/07/04 07:28:40;;;;;;;15.95;6.00;;;;;;;;;;5092852;28;20028;-64
2023/07/04 07:31:05;;;;;;;12.77;4.90;;;;;;;;;;5093365;28;20020;-64
2023/07/04 07:33:31;;;;;;;13.10;5.23;;;;;;;;;;5092657;28;20026;-65
2023/07/04 07:35:56;;;;;;;8.93;3.53;;;;;;;;;;5091985;28;20362;-65
2023/07/04 07:38:21;;;;;;;12.45;4.68;;;;;;;;;;5090743;28;20027;-65
2023/07/04 07:40:53;;;;;;;17.08;4.90;;;;;;;;;;5078664;28;20024;-65
2023/07/04 07:43:20;;;;;;;12.98;4.10;;;;;;;;;;5037654;28;20545;-64
2023/07/04 07:45:46;;;;;;;9.98;3.72;;;;;;;;;;5074873;28;20024;-65
2023/07/04 07:48:12;;;;;;;8.45;4.05;;;;;;;;;;5092168;28;20026;-65
2023/07/04 07:50:37;;;;;;;9.57;4.18;;;;;;;;;;5092301;28;20090;-64
2023/07/04 07:53:02;;;;;;;8.50;3.70;;;;;;;;;;5091664;28;20040;-65
2023/07/04 07:55:27;;;;;;;9.53;3.40;;;;;;;;;;5092302;28;20286;-65
2023/07/04 07:57:53;;;;;;;18.83;3.97;;;;;;;;;;5092101;28;20697;-64
2023/07/04 08:00:18;;;;;;;7.57;3.17;;;;;;;;;;5066583;28;20448;-65
2023/07/04 08:02:43;;;;;;;10.98;3.08;;;;;;;;;;5069834;28;20396;-64
2023/07/04 08:05:08;;;;;;;11.03;4.50;;;;;;;;;;5091995;28;20032;-65
2023/07/04 08:07:34;;;;;;;10.35;4.30;;;;;;;;;;5071918;28;20283;-65
2023/07/04 08:09:59;;;;;;;12.10;4.23;;;;;;;;;;5091465;28;20019;-64
2023/07/04 08:12:25;;;;;;;12.32;3.38;;;;;;;;;;5091809;28;20285;-63
2023/07/04 08:14:50;;;;;;;10.93;4.05;;;;;;;;;;5091972;28;20042;-64
2023/07/04 08:17:15;;;;;;;12.80;4.13;;;;;;;;;;5090094;28;20042;-63
2023/07/04 08:19:41;;;;;;;7.70;2.97;;;;;;;;;;5091056;28;20277;-64
2023/07/04 08:22:06;;;;;;;10.17;3.50;;;;;;;;;;5090882;28;20269;-63
2023/07/04 08:24:31;;;;;;;7.50;3.70;;;;;;;;;;5092144;28;20274;-63
2023/07/04 08:26:58;;;;;;;7.18;3.40;;;;;;;;;;5091307;28;20324;-65
2023/07/04 08:29:34;;;;;;;11.73;4.13;;;;;;;;;;5081959;28;20024;-65
2023/07/04 08:32:11;;;;;;;8.52;3.55;;;;;;;;;;5088558;28;20036;-64
2023/07/04 08:34:36;;;;;;;11.07;3.80;;;;;;;;;;5089649;28;20532;-64
2023/07/04 08:37:01;;;;;;;6.80;3.03;;;;;;;;;;5088361;28;20023;-63
2023/07/04 08:39:26;;;;;;;9.27;3.83;;;;;;;;;;5091116;28;20953;-64
2023/07/04 08:41:58;;;;;;;13.15;3.95;;;;;;;;;;5089904;28;20845;-63
2023/07/04 08:44:30;;;;;;;15.55;4.18;;;;;;;;;;5091275;28;20058;-64
2023/07/04 08:46:57;;;;;;;11.63;3.83;;;;;;;;;;5090449;28;20046;-65
2023/07/04 08:49:40;;;;;;;13.77;4.45;;;;;;;;;;5090880;28;20031;-66
2023/07/04 08:52:08;;;;;;;9.80;4.60;;;;;;;;;;5090678;28;20390;-63
2023/07/04 08:54:34;;;;;;;15.98;4.97;;;;;;;;;;5089356;28;20028;-65
2023/07/04 08:57:01;;;;;;;13.10;4.82;;;;;;;;;;5089089;28;20107;-63
2023/07/04 08:59:33;;;;;;;10.50;5.05;;;;;;;;;;5090553;28;20040;-63
2023/07/04 09:02:01;;;;;;;8.85;4.25;;;;;;;;;;5087503;28;20482;-62
2023/07/04 09:04:35;;;;;;;15.85;4.50;;;;;;;;;;5087432;28;20020;-65
2023/07/04 09:07:32;;;;;;;7.72;4.32;;;;;;;;;;5091362;28;20032;-64
2023/07/04 09:09:59;;;;;;;11.27;4.25;;;;;;;;;;4993895;28;20509;-64
2023/07/04 09:12:25;;;;;;;9.45;3.63;;;;;;;;;;5089839;28;20043;-64
2023/07/04 09:15:00;;;;;;;8.68;3.50;;;;;;;;;;5090003;28;20028;-64
2023/07/04 09:17:37;;;;;;;12.18;4.97;;;;;;;;;;5083867;28;20024;-64
2023/07/04 09:20:05;;;;;;;11.57;4.78;;;;;;;;;;5090608;28;20069;-63
2023/07/04 09:22:30;;;;;;;12.45;4.75;;;;;;;;;;5091103;28;20115;-64
2023/07/04 09:24:55;;;;;;;11.43;4.68;;;;;;;;;;5090544;28;20166;-63
2023/07/04 09:27:20;;;;;;;14.10;4.97;;;;;;;;;;5090512;28;20181;-63
2023/07/04 09:29:46;;;;;;;9.02;4.25;;;;;;;;;;5089727;28;20270;-64
2023/07/04 09:32:12;;;;;;;12.07;5.47;;;;;;;;;;5090509;28;20028;-63
2023/07/04 09:34:43;;;;;;;15.18;5.00;;;;;;;;;;5088985;28;20027;-64
2023/07/04 09:37:16;;;;;;;11.73;4.63;;;;;;;;;;5090542;28;20043;-64
2023/07/04 09:39:49;;;;;;;15.95;5.05;;;;;;;;;;5081517;28;20467;-64
2023/07/04 09:42:15;;;;;;;11.98;4.03;;;;;;;;;;5089184;28;20039;-63
2023/07/04 09:44:41;;;;;;;12.13;4.68;;;;;;;;;;5087732;28;20024;-65
2023/07/04 09:47:14;;;;;;;12.88;4.65;;;;;;;;;;5084991;28;20024;-64
2023/07/04 09:49:39;;;;;;;15.95;5.18;;;;;;;;;;5088837;28;20029;-64
2023/07/04 09:52:13;;;;;;;12.60;5.10;;;;;;;;;;5090415;28;20368;-64
2023/07/04 09:54:40;;;;;;;8.95;3.90;;;;;;;;;;5088972;28;20024;-65
2023/07/04 09:57:22;;;;;;;20.15;5.28;;;;;;;;;;5089661;28;20024;-64
2023/07/04 09:59:48;;;;;;;10.63;4.95;;;;;;;;;;5089122;28;20344;-64
2023/07/04 10:02:17;;;;;;;24.65;5.25;;;;;;;;;;5090245;28;20078;-64
2023/07/04 10:04:42;;;;;;;14.20;4.68;;;;;;;;;;5090258;28;20032;-64
2023/07/04 10:07:14;;;;;;;10.38;4.00;;;;;;;;;;5074691;28;20039;-63
2023/07/04 10:09:49;;;;;;;14.70;4.82;;;;;;;;;;5087653;28;20693;-65
2023/07/04 10:12:17;;;;;;;12.95;4.70;;;;;;;;;;5086203;28;20031;-66
2023/07/04 10:14:46;;;;;;;10.20;3.70;;;;;;;;;;5090558;28;20039;-65
2023/07/04 10:17:19;;;;;;;10.95;4.20;;;;;;;;;;5090209;28;20038;-65
2023/07/04 10:19:47;;;;;;;13.20;4.68;;;;;;;;;;5090742;28;20041;-65
2023/07/04 10:22:12;;;;;;;9.98;4.70;;;;;;;;;;5090384;28;20031;-65
2023/07/04 10:24:37;;;;;;;9.95;4.43;;;;;;;;;;5090826;28;20027;-65
2023/07/04 10:27:05;;;;;;;9.07;4.10;;;;;;;;;;5090360;28;20109;-64
2023/07/04 10:29:32;;;;;;;13.52;4.50;;;;;;;;;;5090614;28;20270;-65
2023/07/04 10:31:59;;;;;;;11.43;4.88;;;;;;;;;;5077432;28;20055;-65
2023/07/04 10:34:26;;;;;;;16.77;5.47;;;;;;;;;;5082744;28;20021;-65
2023/07/04 10:36:52;;;;;;;9.75;4.68;;;;;;;;;;5085004;28;20020;-64
2023/07/04 10:39:18;;;;;;;10.15;4.65;;;;;;;;;;5090340;28;20069;-65
2023/07/04 10:41:55;;;;;;;7.53;4.50;;;;;;;;;;5091573;28;20034;-64
2023/07/04 10:44:22;;;;;;;7.03;4.35;;;;;;;;;;5093640;28;20524;-64
2023/07/04 10:46:53;;;;;;;8.82;4.72;;;;;;;;;;5094047;28;20035;-64
2023/07/04 10:49:20;;;;;;;14.95;5.75;;;;;;;;;;5093831;28;20391;-65
2023/07/04 10:51:48;;;;;;;20.00;5.88;;;;;;;;;;5093858;28;20016;-64
2023/07/04 10:54:13;;;;;;;20.38;5.68;;;;;;;;;;5093212;28;20099;-65
2023/07/04 10:56:42;;;;;;;12.93;4.90;;;;;;;;;;5093413;28;20099;-63
2023/07/04 10:59:13;;;;;;;9.15;4.82;;;;;;;;;;5093931;28;20043;-65
2023/07/04 11:01:47;;;;;;;11.65;4.90;;;;;;;;;;5093861;28;20054;-64
2023/07/04 11:04:26;;;;;;;23.58;5.35;;;;;;;;;;5093062;28;20043;-65
2023/07/04 11:06:59;;;;;;;8.20;4.50;;;;;;;;;;5093217;28;20027;-65
2023/07/04 11:09:24;;;;;;;9.90;5.05;;;;;;;;;;5093350;28;20536;-65
2023/07/04 11:11:50;;;;;;;20.55;4.93;;;;;;;;;;5093017;28;20036;-65
2023/07/04 11:14:20;;;;;;;12.07;5.13;;;;;;;;;;5093501;28;20024;-64
2023/07/04 11:16:45;;;;;;;10.80;5.20;;;;;;;;;;5093181;28;20016;-65
2023/07/04 11:19:15;;;;;;;21.00;5.55;;;;;;;;;;5089511;28;20038;-65
2023/07/04 11:22:06;;;;;;;9.98;4.85;;;;;;;;;;5092496;28;20030;-64
2023/07/04 11:24:32;;;;;;;10.18;5.10;;;;;;;;;;5091103;28;20068;-65
2023/07/04 11:27:09;;;;;;;12.10;5.57;;;;;;;;;;5093337;28;20056;-65
2023/07/04 11:29:52;;;;;;;10.93;5.20;;;;;;;;;;5093850;28;20028;-64
2023/07/04 11:32:19;;;;;;;12.43;5.82;;;;;;;;;;5081841;28;20027;-64
2023/07/04 11:34:53;;;;;;;13.40;4.60;;;;;;;;;;5073366;28;20016;-65
2023/07/04 11:37:18;;;;;;;;;;;;;;;;;;5033451;28;20028;-63
2023/07/04 11:39:47;;;;;;;14.07;4.88;;;;;;;;;;5047273;28;19922;-64
2023/07/04 11:42:20;;;;;;;9.40;5.07;;;;;;;;;;5043139;28;20028;-65
2023/07/04 11:44:51;;;;;;;12.23;5.60;;;;;;;;;;5050281;28;20440;-64
2023/07/04 11:47:27;;;;;;;11.95;5.45;;;;;;;;;;5049000;28;20035;-64
2023/07/04 11:49:54;;;;;;;12.45;5.18;;;;;;;;;;5092645;28;20039;-65
2023/07/04 11:52:25;;;;;;;11.80;5.50;;;;;;;;;;5080728;28;20020;-64
2023/07/04 11:54:57;;;;;;;14.75;6.13;;;;;;;;;;5092272;28;20035;-65
2023/07/04 11:57:22;;;;;;;11.98;6.35;;;;;;;;;;5093304;28;20465;-64
2023/07/04 11:59:48;;;;;;;12.20;5.70;;;;;;;;;;5092948;28;20024;-64
2023/07/04 12:02:14;;;;;;;11.02;5.32;;;;;;;;;;5092684;28;20036;-65
2023/07/04 12:04:40;;;;;;;13.45;5.72;;;;;;;;;;5092234;28;20033;-64
2023/07/04 12:07:08;;;;;;;9.67;4.90;;;;;;;;;;5074678;28;20032;-64
2023/07/04 12:09:36;;;;;;;11.70;5.40;;;;;;;;;;5092505;28;20281;-65
2023/07/04 12:12:04;;;;;;;16.30;4.97;;;;;;;;;;5092784;28;20394;-64
2023/07/04 12:14:31;;;;;;;7.78;4.93;;;;;;;;;;5092183;28;20073;-65
2023/07/04 12:16:58;;;;;;;13.07;5.55;;;;;;;;;;5092779;28;20027;-64
2023/07/04 12:19:23;;;;;;;9.65;5.57;;;;;;;;;;5092328;28;20474;-65
2023/07/04 12:21:49;;;;;;;12.37;5.20;;;;;;;;;;5093146;28;20115;-65
2023/07/04 12:24:21;;;;;;;13.10;5.25;;;;;;;;;;5091458;28;20640;-64
2023/07/04 12:26:56;;;;;;;11.85;5.90;;;;;;;;;;5092726;28;20027;-64
2023/07/04 12:29:22;;;;;;;10.43;6.20;;;;;;;;;;5090111;28;20073;-64
2023/07/04 12:31:58;;;;;;;11.27;5.40;;;;;;;;;;5078630;28;20382;-64
2023/07/04 12:34:27;;;;;;;11.07;5.68;;;;;;;;;;5083829;28;20320;-64
2023/07/04 12:36:54;;;;;;;11.40;5.82;;;;;;;;;;5086817;28;20028;-64
2023/07/04 12:39:20;;;;;;;13.00;5.85;;;;;;;;;;5092083;28;20406;-64
2023/07/04 12:41:46;;;;;;;12.90;5.35;;;;;;;;;;5087470;28;20020;-64
2023/07/04 12:44:13;;;;;;;10.15;5.35;;;;;;;;;;5092415;28;20030;-65
2023/07/04 12:46:41;;;;;;;13.18;5.40;;;;;;;;;;5092275;28;20046;-63
2023/07/04 12:49:07;;;;;;;13.43;5.38;;;;;;;;;;5091571;28;20034;-63
2023/07/04 12:51:32;;;;;;;8.90;4.90;;;;;;;;;;5078690;28;20108;-64
2023/07/04 12:54:00;;;;;;;12.90;6.03;;;;;;;;;;5091944;28;20449;-63
2023/07/04 12:56:26;;;;;;;7.95;5.13;;;;;;;;;;5079137;28;20042;-63
2023/07/04 12:58:52;;;;;;;15.38;6.28;;;;;;;;;;5091003;28;20020;-64
2023/07/04 13:01:23;;;;;;;11.30;5.53;;;;;;;;;;5092105;28;20030;-64
2023/07/04 13:03:54;;;;;;;9.63;4.95;;;;;;;;;;5073411;28;20038;-63
2023/07/04 13:06:20;;;;;;;14.10;4.80;;;;;;;;;;5090895;28;20027;-63
2023/07/04 13:08:47;;;;;;;25.35;6.25;;;;;;;;;;5060674;28;20097;-64
2023/07/04 13:11:12;;;;;;;7.93;4.95;;;;;;;;;;5030632;28;20027;-63
2023/07/04 13:13:39;;;;;;;9.77;5.43;;;;;;;;;;5039537;28;20035;-64
2023/07/04 13:16:08;;;;;;;12.32;5.70;;;;;;;;;;5065382;28;20763;-63
2023/07/04 13:18:37;;;;;;;18.48;5.63;;;;;;;;;;5041518;28;20024;-64
2023/07/04 13:21:02;;;;;;;12.40;6.07;;;;;;;;;;5034658;28;20135;-65
2023/07/04 13:23:31;;;;;;;11.43;4.97;;;;;;;;;;5041954;28;20026;-65
2023/07/04 13:25:56;;;;;;;11.80;5.00;;;;;;;;;;5086471;28;20016;-64
2023/07/04 13:28:33;;;;;;;15.63;5.50;;;;;;;;;;5091605;28;20031;-64
2023/07/04 13:31:17;;;;;;;15.65;5.90;;;;;;;;;;5090636;28;20036;-64
2023/07/04 13:33:43;;;;;;;14.82;5.65;;;;;;;;;;5085817;28;20063;-64
2023/07/04 13:36:13;;;;;;;8.90;5.13;;;;;;;;;;5080504;28;20113;-64
2023/07/04 13:38:40;;;;;;;16.13;5.07;;;;;;;;;;5090991;28;20471;-64
2023/07/04 13:41:06;;;;;;;13.63;5.68;;;;;;;;;;5091510;28;20070;-63
2023/07/04 13:43:31;;;;;;;8.95;5.05;;;;;;;;;;5091480;28;20027;-63
2023/07/04 13:45:56;;;;;;;9.15;5.47;;;;;;;;;;5091212;28;20021;-64
2023/07/04 13:48:22;;;;;;;12.38;6.20;;;;;;;;;;5091608;28;20023;-64
2023/07/04 13:50:47;;;;;;;10.35;5.10;;;;;;;;;;5091133;28;20027;-63
2023/07/04 13:53:12;;;;;;;10.85;5.32;;;;;;;;;;5091082;28;20024;-63
2023/07/04 13:55:38;;;;;;;10.13;4.55;;;;;;;;;;5090984;28;20424;-64
2023/07/04 13:58:03;;;;;;;10.45;5.65;;;;;;;;;;5090938;28;20115;-63
2023/07/04 14:00:29;;;;;;;10.27;5.05;;;;;;;;;;5090503;28;20107;-64
2023/07/04 14:02:54;;;;;;;7.63;4.72;;;;;;;;;;5083044;28;20016;-64
2023/07/04 14:05:19;;;;;;;8.02;5.05;;;;;;;;;;5091002;28;20119;-63
2023/07/04 14:07:46;;;;;;;7.97;4.63;;;;;;;;;;5090111;28;20089;-63
2023/07/04 14:10:11;;;;;;;14.02;5.55;;;;;;;;;;5091518;28;20028;-64
2023/07/04 14:12:38;;;;;;;9.70;4.90;;;;;;;;;;5087010;28;20035;-64
2023/07/04 14:15:05;;;;;;;9.00;5.40;;;;;;;;;;5089322;28;20028;-64
2023/07/04 14:17:31;;;;;;;10.27;5.30;;;;;;;;;;5083554;28;20054;-64
2023/07/04 14:19:56;;;;;;;10.82;5.53;;;;;;;;;;5085965;28;20485;-64
2023/07/04 14:22:21;;;;;;;7.97;4.83;;;;;;;;;;5092401;28;20028;-64
2023/07/04 14:24:46;;;;;;;11.00;4.37;;;;;;;;;;5090914;28;20282;-64
2023/07/04 14:27:12;;;;;;;12.18;5.53;;;;;;;;;;5089108;28;20723;-65
2023/07/04 14:29:37;;;;;;;14.80;5.40;;;;;;;;;;5077723;28;20032;-63